Time;durP1;ratioP1;P1;durP2;ratioP2;P2;SDS_P1;SDS_P2;PMS_P1;PMS_P2;Temp;Humidity;BMP_temperature;BMP_pressure;BME280_temperature;BME280_humidity;BME280_pressure;Samples;Min_cycle;Max_cycle;Signal;HPM_P1;HPM_P2
2023/05/06 00:02:28;0.00;0.00;0.62;0.00;0.00;0.62;1.73;1.30;;;27.30;22.30;;;;;;2256866;61;20389;-61
2023/05/06 00:05:13;0.00;0.00;0.62;0.00;0.00;0.62;1.80;1.20;;;27.30;22.30;;;;;;2256555;61;20365;-63
2023/05/06 00:07:58;0.00;0.00;0.62;0.00;0.00;0.62;1.97;1.60;;;27.30;22.50;;;;;;2255865;61;20373;-64
2023/05/06 00:10:43;0.00;0.00;0.62;0.00;0.00;0.62;2.20;1.37;;;27.20;22.30;;;;;;2256230;61;20496;-64
2023/05/06 00:13:27;0.00;0.00;0.62;0.00;0.00;0.62;1.80;1.50;;;27.30;22.30;;;;;;2256503;61;20364;-67
2023/05/06 00:16:14;0.00;0.00;0.62;0.00;0.00;0.62;2.20;1.40;;;27.30;22.30;;;;;;2256243;61;20369;-63
2023/05/06 00:18:59;0.00;0.00;0.62;0.00;0.00;0.62;2.00;1.50;;;27.20;22.30;;;;;;2256428;61;20956;-64
2023/05/06 00:21:44;0.00;0.00;0.62;0.00;0.00;0.62;1.87;1.33;;;27.20;22.30;;;;;;2255671;61;20404;-60
2023/05/06 00:24:29;0.00;0.00;0.62;0.00;0.00;0.62;2.50;1.60;;;27.20;22.30;;;;;;2256540;61;20365;-62
2023/05/06 00:27:14;0.00;0.00;0.62;0.00;0.00;0.62;1.70;1.37;;;27.20;22.30;;;;;;2256985;61;20749;-63
2023/05/06 00:29:59;0.00;0.00;0.62;0.00;0.00;0.62;2.90;1.37;;;27.20;22.30;;;;;;2254877;61;20906;-64
2023/05/06 00:32:45;0.00;0.00;0.62;0.00;0.00;0.62;1.93;1.50;;;27.20;22.30;;;;;;2255967;61;20506;-63
2023/05/06 00:35:30;0.00;0.00;0.62;0.00;0.00;0.62;2.00;1.50;;;27.20;22.30;;;;;;2256127;61;20374;-67
2023/05/06 00:38:15;0.00;0.00;0.62;0.00;0.00;0.62;1.67;1.20;;;27.20;22.30;;;;;;2255761;61;20983;-64
2023/05/06 00:41:00;0.00;0.00;0.62;0.00;0.00;0.62;2.50;1.60;;;27.20;22.30;;;;;;2256338;61;20869;-63
2023/05/06 00:43:45;0.00;0.00;0.62;0.00;0.00;0.62;1.60;1.10;;;27.20;22.30;;;;;;2255254;61;20771;-62
2023/05/06 00:46:30;0.00;0.00;0.62;0.00;0.00;0.62;1.80;1.23;;;27.20;22.30;;;;;;2256216;61;20370;-62
2023/05/06 00:49:15;0.00;0.00;0.62;0.00;0.00;0.62;1.70;1.40;;;27.20;22.40;;;;;;2256008;61;20439;-64
2023/05/06 00:52:00;0.00;0.00;0.62;0.00;0.00;0.62;2.10;1.20;;;27.20;22.40;;;;;;2255415;61;20432;-61
2023/05/06 00:54:45;0.00;0.00;0.62;0.00;0.00;0.62;1.47;1.13;;;27.20;22.30;;;;;;2256478;61;20393;-63
2023/05/06 00:57:30;0.00;0.00;0.62;0.00;0.00;0.62;2.03;1.27;;;27.20;22.30;;;;;;2256520;61;20370;-64
2023/05/06 01:00:16;0.00;0.00;0.62;0.00;0.00;0.62;1.83;1.33;;;27.20;22.30;;;;;;2254994;61;20946;-62
2023/05/06 01:03:01;0.00;0.00;0.62;0.00;0.00;0.62;1.80;1.33;;;27.20;22.40;;;;;;2256636;61;20361;-68
2023/05/06 01:05:59;0.00;0.00;0.62;0.00;0.00;0.62;1.70;1.40;;;27.20;22.40;;;;;;2255683;61;20462;-65
2023/05/06 01:08:53;0.00;0.00;0.62;0.00;0.00;0.62;1.80;1.30;;;27.20;22.40;;;;;;2256234;61;20460;-62
2023/05/06 01:11:44;0.00;0.00;0.62;0.00;0.00;0.62;1.60;1.23;;;27.20;22.40;;;;;;2255397;61;20390;-62
2023/05/06 01:14:37;0.00;0.00;0.62;0.00;0.00;0.62;1.70;1.27;;;27.20;22.40;;;;;;2255356;61;20374;-62
2023/05/06 01:17:26;0.00;0.00;0.62;0.00;0.00;0.62;1.57;1.10;;;27.20;22.40;;;;;;2256330;61;20398;-62
2023/05/06 01:20:12;0.00;0.00;0.62;0.00;0.00;0.62;1.67;1.20;;;27.20;22.90;;;;;;2255791;61;20436;-63
2023/05/06 01:23:00;0.00;0.00;0.62;0.00;0.00;0.62;1.43;1.00;;;27.20;22.40;;;;;;2256252;61;20362;-63
2023/05/06 01:25:46;0.00;0.00;0.62;0.00;0.00;0.62;1.83;1.57;;;27.10;22.30;;;;;;2256333;61;20374;-61
2023/05/06 01:28:30;0.00;0.00;0.62;0.00;0.00;0.62;1.50;1.10;;;27.10;22.30;;;;;;2254957;61;20394;-61
2023/05/06 01:31:23;0.00;0.00;0.62;0.00;0.00;0.62;2.27;1.57;;;27.20;22.40;;;;;;2256220;61;20394;-62
2023/05/06 01:34:17;0.00;0.00;0.62;0.00;0.00;0.62;1.73;1.43;;;27.20;22.40;;;;;;2256278;61;20498;-63
2023/05/06 01:37:09;0.00;0.00;0.62;0.00;0.00;0.62;1.70;1.10;;;27.20;22.40;;;;;;2255677;61;20445;-63
2023/05/06 01:39:58;0.00;0.00;0.62;0.00;0.00;0.62;2.03;1.30;;;27.10;22.40;;;;;;2265520;40;20839;-62
2023/05/06 01:42:50;0.00;0.00;0.62;0.00;0.00;0.62;1.73;1.50;;;27.20;22.40;;;;;;2256091;61;20405;-62
2023/05/06 01:45:36;0.00;0.00;0.62;0.00;0.00;0.62;1.83;1.10;;;27.10;22.40;;;;;;2256208;61;20369;-62
2023/05/06 01:48:28;0.00;0.00;0.62;0.00;0.00;0.62;1.90;1.40;;;27.10;22.40;;;;;;2260240;48;20466;31
2023/05/06 01:51:13;0.00;0.00;0.62;0.00;0.00;0.62;2.23;1.60;;;27.10;22.40;;;;;;2244227;61;20396;-63
2023/05/06 01:53:58;0.00;0.00;0.62;0.00;0.00;0.62;1.73;1.10;;;27.10;22.60;;;;;;2244384;61;21179;-64
2023/05/06 01:56:43;0.00;0.00;0.62;0.00;0.00;0.62;1.90;1.20;;;27.10;22.40;;;;;;2244317;61;20444;-63
2023/05/06 01:59:29;0.00;0.00;0.62;0.00;0.00;0.62;1.80;1.30;;;27.10;22.40;;;;;;2247615;61;20386;-63
2023/05/06 02:02:14;0.00;0.00;0.62;0.00;0.00;0.62;1.50;1.20;;;27.10;22.40;;;;;;2247769;61;20371;-63
2023/05/06 02:04:58;0.00;0.00;0.62;0.00;0.00;0.62;1.30;1.10;;;27.10;22.40;;;;;;2247167;61;20940;-63
2023/05/06 02:07:43;0.00;0.00;0.62;0.00;0.00;0.62;2.13;1.20;;;27.10;22.90;;;;;;2247971;61;20368;-61
2023/05/06 02:10:27;0.00;0.00;0.62;0.00;0.00;0.62;1.40;1.00;;;27.10;22.40;;;;;;2247960;61;20388;-63
2023/05/06 02:13:18;0.00;0.00;0.62;0.00;0.00;0.62;1.73;1.37;;;27.10;22.40;;;;;;2246844;61;20419;-64
2023/05/06 02:16:04;0.00;0.00;0.62;0.00;0.00;0.62;1.60;1.17;;;27.10;22.40;;;;;;2248406;61;20832;-63
2023/05/06 02:18:50;0.00;0.00;0.62;0.00;0.00;0.62;1.50;1.10;;;27.10;22.40;;;;;;2247479;61;20993;-65
2023/05/06 02:21:35;0.00;0.00;0.62;0.00;0.00;0.62;1.50;1.10;;;27.10;22.40;;;;;;2249680;61;20679;-62
2023/05/06 02:24:20;0.00;0.00;0.62;0.00;0.00;0.62;1.70;1.20;;;27.10;22.40;;;;;;2250413;61;20363;-64
2023/05/06 02:27:05;0.00;0.00;0.62;0.00;0.00;0.62;1.70;1.23;;;27.00;22.90;;;;;;2247345;61;20974;-64
2023/05/06 02:29:49;0.00;0.00;0.62;0.00;0.00;0.62;1.77;1.23;;;27.10;22.40;;;;;;2247357;61;20484;-63
2023/05/06 02:32:36;0.00;0.00;0.62;0.00;0.00;0.62;1.60;1.10;;;27.10;22.50;;;;;;2247883;61;20391;-64
2023/05/06 02:35:21;0.00;0.00;0.62;0.00;0.00;0.62;1.67;1.27;;;27.10;22.50;;;;;;2247065;61;20372;-61
2023/05/06 02:38:07;0.00;0.00;0.62;0.00;0.00;0.62;1.70;1.10;;;27.10;22.50;;;;;;2247940;61;20363;-63
2023/05/06 02:40:52;0.00;0.00;0.62;0.00;0.00;0.62;1.60;1.00;;;27.10;22.50;;;;;;2247705;61;20375;-63
2023/05/06 02:43:37;0.00;0.00;0.62;0.00;0.00;0.62;1.70;1.00;;;27.10;22.50;;;;;;2247192;61;20922;-65
2023/05/06 02:46:23;0.00;0.00;0.62;0.00;0.00;0.62;1.70;1.27;;;27.10;22.40;;;;;;2247825;61;20367;-63
2023/05/06 02:49:09;0.00;0.00;0.62;0.00;0.00;0.62;1.77;1.30;;;27.10;22.50;;;;;;2247578;61;20411;-64
2023/05/06 02:51:54;0.00;0.00;0.62;0.00;0.00;0.62;1.77;1.27;;;27.00;22.40;;;;;;2247970;61;20450;-64
2023/05/06 02:54:38;0.00;0.00;0.62;0.00;0.00;0.62;1.60;1.20;;;27.00;22.40;;;;;;2248150;61;20776;-64
2023/05/06 02:57:23;0.00;0.00;0.62;0.00;0.00;0.62;1.70;1.10;;;27.00;22.40;;;;;;2247141;61;20452;-63
2023/05/06 03:00:09;0.00;0.00;0.62;0.00;0.00;0.62;1.70;1.30;;;27.00;22.40;;;;;;2247720;61;20823;-63
2023/05/06 03:02:54;0.00;0.00;0.62;0.00;0.00;0.62;1.80;1.20;;;27.00;22.40;;;;;;2248135;61;20410;-64
2023/05/06 03:05:40;0.00;0.00;0.62;0.00;0.00;0.62;1.53;1.10;;;27.00;22.40;;;;;;2247175;61;20395;-62
2023/05/06 03:08:25;0.00;0.00;0.62;0.00;0.00;0.62;1.50;1.10;;;27.00;22.40;;;;;;2250294;61;20363;-64
2023/05/06 03:11:09;0.00;0.00;0.62;0.00;0.00;0.62;1.50;0.90;;;27.00;22.40;;;;;;2247379;61;20455;-63
2023/05/06 03:13:54;0.00;0.00;0.62;0.00;0.00;0.62;1.60;1.07;;;27.00;23.00;;;;;;2247083;61;20414;-62
2023/05/06 03:16:39;0.00;0.00;0.62;0.00;0.00;0.62;1.70;1.10;;;27.00;22.40;;;;;;2248166;61;20794;-61
2023/05/06 03:19:25;0.00;0.00;0.62;0.00;0.00;0.62;1.77;1.10;;;27.00;22.40;;;;;;2246175;61;20387;-64
2023/05/06 03:22:11;0.00;0.00;0.62;0.00;0.00;0.62;1.80;1.20;;;27.00;22.40;;;;;;2247956;61;20362;-61
2023/05/06 03:24:59;0.00;0.00;0.62;0.00;0.00;0.62;1.40;0.97;;;27.00;22.50;;;;;;2247286;61;20396;-65
2023/05/06 03:27:46;0.00;0.00;0.62;0.00;0.00;0.62;1.50;1.10;;;27.00;22.50;;;;;;2246652;61;20927;-63
2023/05/06 03:30:36;0.00;0.00;0.62;0.00;0.00;0.62;1.47;0.90;;;27.00;22.50;;;;;;2247218;61;20924;-64
2023/05/06 03:33:23;0.00;0.00;0.62;0.00;0.00;0.62;2.53;1.40;;;27.00;22.50;;;;;;2247185;61;20388;-65
2023/05/06 03:36:08;0.00;0.00;0.62;0.00;0.00;0.62;1.60;0.97;;;27.00;22.50;;;;;;2247961;61;20379;-64
2023/05/06 03:38:56;0.00;0.00;0.62;0.00;0.00;0.62;1.70;1.10;;;27.00;22.50;;;;;;2249946;61;20434;-63
2023/05/06 03:41:41;0.00;0.00;0.62;0.00;0.00;0.62;1.47;0.97;;;27.00;22.50;;;;;;2249379;61;20371;-62
2023/05/06 03:44:26;0.00;0.00;0.62;0.00;0.00;0.62;1.50;1.17;;;27.00;22.50;;;;;;2248139;61;20404;-62
2023/05/06 03:47:11;0.00;0.00;0.62;0.00;0.00;0.62;1.80;1.20;;;27.00;22.50;;;;;;2247416;61;20367;-63
2023/05/06 03:49:56;0.00;0.00;0.62;0.00;0.00;0.62;1.70;1.10;;;26.90;22.50;;;;;;2249033;61;20438;-62
2023/05/06 03:52:41;0.00;0.00;0.62;0.00;0.00;0.62;2.47;1.10;;;27.00;22.50;;;;;;2247454;61;20455;-64
2023/05/06 03:55:28;0.00;0.00;0.62;0.00;0.00;0.62;2.03;1.40;;;27.00;22.50;;;;;;2247744;61;20422;-64
2023/05/06 03:58:14;0.00;0.00;0.62;0.00;0.00;0.62;2.03;1.27;;;26.90;22.50;;;;;;2247219;61;20456;-64
2023/05/06 04:01:03;0.00;0.00;0.62;0.00;0.00;0.62;1.87;1.33;;;27.00;22.50;;;;;;2247238;61;20376;-61
2023/05/06 04:03:48;0.00;0.00;0.62;0.00;0.00;0.62;1.50;1.00;;;26.90;22.50;;;;;;2246698;61;20387;-63
2023/05/06 04:06:33;0.00;0.00;0.62;0.00;0.00;0.62;1.50;1.10;;;27.00;22.50;;;;;;2247501;61;20439;-63
2023/05/06 04:09:17;0.00;0.00;0.62;0.00;0.00;0.62;1.80;1.17;;;27.00;22.50;;;;;;2246960;61;20495;-63
2023/05/06 04:12:05;0.00;0.00;0.62;0.00;0.00;0.62;1.90;1.30;;;26.90;22.50;;;;;;2246653;61;20864;-62
2023/05/06 04:14:50;0.00;0.00;0.62;0.00;0.00;0.62;1.40;1.00;;;26.90;22.50;;;;;;2247449;61;20376;-63
2023/05/06 04:17:35;0.00;0.00;0.62;0.00;0.00;0.62;1.73;1.20;;;26.90;22.50;;;;;;2247964;61;20463;-62
2023/05/06 04:20:20;0.00;0.00;0.62;0.00;0.00;0.62;2.10;1.30;;;26.90;22.50;;;;;;2246517;61;20793;-63
2023/05/06 04:23:06;0.00;0.00;0.62;0.00;0.00;0.62;2.20;1.60;;;26.90;22.50;;;;;;2247583;61;20383;-62
2023/05/06 04:25:51;0.00;0.00;0.62;0.00;0.00;0.62;1.63;1.20;;;26.90;22.50;;;;;;2246525;61;20803;-64
2023/05/06 04:28:40;0.00;0.00;0.62;0.00;0.00;0.62;1.40;0.90;;;26.90;22.50;;;;;;2247484;61;20427;-63
2023/05/06 04:31:27;0.00;0.00;0.62;0.00;0.00;0.62;1.93;1.00;;;26.90;22.50;;;;;;2247558;61;20515;-64
2023/05/06 04:34:14;0.00;0.00;0.62;0.00;0.00;0.62;1.60;1.20;;;26.90;22.50;;;;;;2246271;61;20816;-65
2023/05/06 04:36:59;0.00;0.00;0.62;0.00;0.00;0.62;1.60;1.30;;;26.90;22.50;;;;;;2248208;61;20438;-64
2023/05/06 04:40:05;0.00;0.00;0.62;0.00;0.00;0.62;1.40;1.00;;;26.90;22.50;;;;;;2247451;61;20379;-64
2023/05/06 04:42:51;0.00;0.00;0.62;0.00;0.00;0.62;1.77;1.27;;;26.90;22.50;;;;;;2248066;61;20414;-62
2023/05/06 04:45:48;0.00;0.00;0.62;0.00;0.00;0.62;1.60;1.20;;;26.90;22.50;;;;;;2248202;61;20367;-64
2023/05/06 04:48:36;0.00;0.00;0.62;0.00;0.00;0.62;1.60;1.17;;;26.90;22.50;;;;;;2249524;61;20398;-62
2023/05/06 04:51:22;0.00;0.00;0.62;0.00;0.00;0.62;1.40;1.00;;;26.90;22.50;;;;;;2248328;61;20395;-62
2023/05/06 04:54:07;0.00;0.00;0.62;0.00;0.00;0.62;1.77;1.30;;;26.90;22.50;;;;;;2247956;61;20368;-63
2023/05/06 04:56:53;0.00;0.00;0.62;0.00;0.00;0.62;1.60;1.10;;;26.90;22.50;;;;;;2247068;61;20371;-61
2023/05/06 04:59:38;0.00;0.00;0.62;0.00;0.00;0.62;1.50;1.03;;;26.90;23.00;;;;;;2247464;61;20384;-63
2023/05/06 05:02:25;0.00;0.00;0.62;0.00;0.00;0.62;1.60;1.13;;;26.90;22.50;;;;;;2247417;61;20364;-62
2023/05/06 05:05:11;0.00;0.00;0.62;0.00;0.00;0.62;1.63;1.03;;;26.90;22.50;;;;;;2247682;61;20419;-61
2023/05/06 05:07:57;0.00;0.00;0.62;0.00;0.00;0.62;1.60;1.10;;;26.80;22.50;;;;;;2247929;61;20797;-62
2023/05/06 05:10:44;0.00;0.00;0.62;0.00;0.00;0.62;1.73;1.23;;;26.80;23.00;;;;;;2245998;61;20415;-61
2023/05/06 05:13:34;0.00;0.00;0.62;0.00;0.00;0.62;1.57;1.00;;;26.80;22.50;;;;;;2247924;61;20403;-64
2023/05/06 05:16:19;0.00;0.00;0.62;0.00;0.00;0.62;1.50;1.00;;;26.80;22.50;;;;;;2247960;61;20370;-63
2023/05/06 05:19:06;0.00;0.00;0.62;0.00;0.00;0.62;1.40;0.90;;;26.80;22.50;;;;;;2249508;61;20395;-65
2023/05/06 05:21:52;0.00;0.00;0.62;0.00;0.00;0.62;1.30;0.80;;;26.80;22.50;;;;;;2248178;61;20491;-64
2023/05/06 05:24:37;0.00;0.00;0.62;0.00;0.00;0.62;1.53;0.90;;;26.80;22.50;;;;;;2247859;61;20446;-63
2023/05/06 05:27:22;0.00;0.00;0.62;0.00;0.00;0.62;1.53;1.00;;;26.80;22.50;;;;;;2248546;61;20371;-63
2023/05/06 05:30:08;0.00;0.00;0.62;0.00;0.00;0.62;1.33;0.80;;;26.80;22.50;;;;;;2247573;61;20883;-64
2023/05/06 05:32:55;0.00;0.00;0.62;0.00;0.00;0.62;1.60;1.13;;;26.80;22.50;;;;;;2246850;61;20808;-62
2023/05/06 05:35:42;0.00;0.00;0.62;0.00;0.00;0.62;1.50;1.07;;;26.80;22.50;;;;;;2248713;61;20367;-62
2023/05/06 05:38:27;0.00;0.00;0.62;0.00;0.00;0.62;1.57;1.10;;;26.80;22.50;;;;;;2247846;61;20451;-62
2023/05/06 05:41:12;0.00;0.00;0.62;0.00;0.00;0.62;2.47;1.60;;;26.80;22.50;;;;;;2249469;61;20367;-62
2023/05/06 05:43:57;0.00;0.00;0.62;0.00;0.00;0.62;2.00;1.20;;;26.80;22.60;;;;;;2248488;61;20943;-64
2023/05/06 05:46:44;0.00;0.00;0.62;0.00;0.00;0.62;1.60;1.03;;;26.80;22.50;;;;;;2247442;61;20771;-64
2023/05/06 05:49:33;0.00;0.00;0.62;0.00;0.00;0.62;1.60;1.10;;;26.80;22.60;;;;;;2247603;61;20451;-63
2023/05/06 05:52:20;0.00;0.00;0.62;0.00;0.00;0.62;2.70;1.80;;;26.80;22.60;;;;;;2247817;61;20395;-64
2023/05/06 05:55:06;0.00;0.00;0.62;0.00;0.00;0.62;2.33;1.40;;;26.80;22.60;;;;;;2247478;61;20487;-64
2023/05/06 05:57:52;0.00;0.00;0.62;0.00;0.00;0.62;2.00;1.30;;;26.80;22.60;;;;;;2248198;61;20372;-63
2023/05/06 06:00:38;0.00;0.00;0.62;0.00;0.00;0.62;1.90;1.40;;;26.80;22.60;;;;;;2247484;61;20383;-65
2023/05/06 06:03:29;0.00;0.00;0.62;0.00;0.00;0.62;2.20;1.43;;;26.80;22.50;;;;;;2246917;61;20383;-64
2023/05/06 06:06:14;0.00;0.00;0.62;0.00;0.00;0.62;2.40;2.00;;;26.80;22.60;;;;;;2248216;61;20363;-64
2023/05/06 06:09:01;0.00;0.00;0.62;0.00;0.00;0.62;1.87;1.23;;;26.80;22.60;;;;;;2249971;61;20450;-65
2023/05/06 06:11:46;0.00;0.00;0.62;0.00;0.00;0.62;2.27;1.60;;;26.80;22.60;;;;;;2247866;61;20474;-63
2023/05/06 06:14:31;0.00;0.00;0.62;0.00;0.00;0.62;2.40;1.83;;;26.80;22.60;;;;;;2247732;61;20423;-61
2023/05/06 06:17:17;0.00;0.00;0.62;0.00;0.00;0.62;2.27;1.63;;;26.80;22.60;;;;;;2246914;61;20371;-65
2023/05/06 06:20:04;0.00;0.00;0.62;0.00;0.00;0.62;2.40;1.70;;;26.80;22.60;;;;;;2247599;61;20468;-62
2023/05/06 06:22:49;0.00;0.00;0.62;0.00;0.00;0.62;2.70;1.93;;;26.80;22.60;;;;;;2248187;61;20368;-62
2023/05/06 06:25:35;0.00;0.00;0.62;0.00;0.00;0.62;2.67;2.10;;;26.80;22.60;;;;;;2247048;61;20368;-64
2023/05/06 06:28:20;0.00;0.00;0.62;0.00;0.00;0.62;2.60;1.90;;;26.80;22.60;;;;;;2248157;61;20371;-62
2023/05/06 06:31:05;0.00;0.00;0.62;0.00;0.00;0.62;2.40;2.13;;;26.80;22.60;;;;;;2247631;61;20364;-64
2023/05/06 06:33:51;0.00;0.00;0.62;0.00;0.00;0.62;4.03;2.80;;;26.80;22.60;;;;;;2247676;61;20499;-66
2023/05/06 06:36:35;0.00;0.00;0.62;0.00;0.00;0.62;2.43;2.23;;;26.80;22.60;;;;;;2248140;61;20427;-63
2023/05/06 06:39:20;0.00;0.00;0.62;0.00;0.00;0.62;4.70;2.60;;;26.80;22.60;;;;;;2246287;61;20388;-64
2023/05/06 06:42:06;0.00;0.00;0.62;0.00;0.00;0.62;3.60;2.70;;;26.80;22.60;;;;;;2248250;61;20407;-64
2023/05/06 06:45:07;0.00;0.00;0.62;0.00;0.00;0.62;3.73;2.83;;;26.80;22.60;;;;;;2247891;61;20368;-63
2023/05/06 06:47:52;0.00;0.00;0.62;0.00;0.00;0.62;3.70;2.60;;;26.80;22.60;;;;;;2247360;61;20699;-63
2023/05/06 06:50:36;0.00;0.00;0.62;0.00;0.00;0.62;4.10;2.87;;;26.80;22.60;;;;;;2247740;61;20807;-64
2023/05/06 06:53:21;0.00;0.00;0.62;0.00;0.00;0.62;2.80;2.37;;;26.80;22.60;;;;;;2247834;61;20395;-64
2023/05/06 06:56:10;0.00;0.00;0.62;0.00;0.00;0.62;3.33;3.03;;;26.90;22.60;;;;;;2248040;61;20348;-66
2023/05/06 06:58:56;0.00;0.00;0.62;0.00;0.00;0.62;4.23;3.07;;;26.90;22.60;;;;;;2247373;61;20427;-63
2023/05/06 07:01:41;0.00;0.00;0.62;0.00;0.00;0.62;3.20;2.80;;;26.90;22.60;;;;;;2247285;61;20387;-63
2023/05/06 07:04:26;0.00;0.00;0.62;0.00;0.00;0.62;3.40;2.67;;;26.80;22.60;;;;;;2248007;61;20430;-64
2023/05/06 07:07:10;0.00;0.00;0.62;0.00;0.00;0.62;5.23;3.20;;;26.80;22.60;;;;;;2248268;61;20372;-60
2023/05/06 07:09:56;0.00;0.00;0.62;0.00;0.00;0.62;3.30;3.00;;;26.90;22.70;;;;;;2246912;61;20388;-67
2023/05/06 07:12:41;0.00;0.00;0.62;0.00;0.00;0.62;3.40;3.10;;;26.80;22.60;;;;;;2248245;61;20403;-62
2023/05/06 07:15:27;0.00;0.00;0.62;0.00;0.00;0.62;3.67;3.27;;;26.80;22.60;;;;;;2247741;61;20368;-62
2023/05/06 07:18:12;0.00;0.00;0.62;0.00;0.00;0.62;5.03;3.33;;;26.80;22.60;;;;;;2248025;61;20387;-63
2023/05/06 07:20:56;0.00;0.00;0.62;0.00;0.00;0.62;4.37;3.67;;;26.80;22.60;;;;;;2247897;61;20367;-63
2023/05/06 07:23:41;0.00;0.00;0.62;0.00;0.00;0.62;4.40;3.63;;;26.90;22.60;;;;;;2247262;61;20874;-64
2023/05/06 07:26:26;0.00;0.00;0.62;0.00;0.00;0.62;4.10;3.60;;;26.80;22.60;;;;;;2247865;61;20367;-64
2023/05/06 07:29:10;0.00;0.00;0.62;0.00;0.00;0.62;5.20;4.00;;;26.80;22.60;;;;;;2247581;61;20388;-63
2023/05/06 07:31:56;0.00;0.00;0.62;0.00;0.00;0.62;5.13;3.80;;;26.90;22.60;;;;;;2247128;61;20686;-61
2023/05/06 07:34:41;0.00;0.00;0.62;0.00;0.00;0.62;5.43;4.27;;;26.90;22.60;;;;;;2248087;61;20371;-62
2023/05/06 07:37:26;0.00;0.00;0.62;0.00;0.00;0.62;4.50;3.60;;;26.90;22.60;;;;;;2248054;61;20453;-62
2023/05/06 07:40:12;0.00;0.00;0.62;0.00;0.00;0.62;5.17;4.43;;;26.80;22.60;;;;;;2247348;61;20706;-64
2023/05/06 07:42:57;0.00;0.00;0.62;0.00;0.00;0.62;4.47;3.60;;;26.80;22.60;;;;;;2248142;61;20363;-64
2023/05/06 07:45:41;0.00;0.00;0.62;0.00;0.00;0.62;5.80;4.80;;;26.80;22.60;;;;;;2247136;61;20458;-62
2023/05/06 07:48:28;0.00;0.00;0.62;0.00;0.00;0.62;5.60;4.50;;;26.90;22.70;;;;;;2248176;61;20360;-63
2023/05/06 07:51:13;0.00;0.00;0.62;0.00;0.00;0.62;4.90;4.40;;;26.90;22.60;;;;;;2247585;61;20375;-63
2023/05/06 07:53:57;0.00;0.00;0.62;0.00;0.00;0.62;4.67;4.17;;;26.80;22.60;;;;;;2247198;61;20812;-65
2023/05/06 07:56:42;0.00;0.00;0.62;0.00;0.00;0.62;4.67;4.20;;;26.80;22.60;;;;;;2248378;61;20372;-64
2023/05/06 07:59:27;0.00;0.00;0.62;0.00;0.00;0.62;4.40;4.00;;;26.90;23.20;;;;;;2290291;40;20409;-66
2023/05/06 08:02:12;0.00;0.00;0.62;0.00;0.00;0.62;5.10;4.13;;;26.80;22.60;;;;;;2259584;61;20365;-65
2023/05/06 08:04:58;0.00;0.00;0.62;0.00;0.00;0.62;4.70;4.07;;;26.90;22.70;;;;;;2260048;61;20373;-63
2023/05/06 08:07:43;0.00;0.00;0.62;0.00;0.00;0.62;5.10;4.60;;;26.90;22.70;;;;;;2258766;61;20508;-65
2023/05/06 08:10:53;0.00;0.00;0.62;0.00;0.00;0.62;5.00;4.30;;;26.80;22.60;;;;;;2297697;40;20408;-65
2023/05/06 08:13:38;0.00;0.00;0.62;0.00;0.00;0.62;4.80;4.30;;;26.80;22.60;;;;;;2262214;61;20423;-66
2023/05/06 08:16:23;0.00;0.00;0.62;0.00;0.00;0.62;4.90;4.00;;;26.80;22.60;;;;;;2259807;61;20924;-64
2023/05/06 08:19:08;0.00;0.00;0.62;0.00;0.00;0.62;5.07;4.40;;;26.80;22.70;;;;;;2261234;61;20382;-66
2023/05/06 08:21:54;0.00;0.00;0.62;0.00;0.00;0.62;4.83;4.13;;;26.80;22.70;;;;;;2256816;61;20368;-65
2023/05/06 08:24:38;0.00;0.00;0.62;0.00;0.00;0.62;4.30;3.90;;;26.80;22.60;;;;;;2256139;61;20369;-66
2023/05/06 08:27:23;0.00;0.00;0.62;0.00;0.00;0.62;4.70;4.20;;;26.90;22.70;;;;;;2256591;61;20440;-65
2023/05/06 08:30:09;0.00;0.00;0.62;0.00;0.00;0.62;4.40;4.00;;;26.80;22.70;;;;;;2255219;61;20385;-66
2023/05/06 08:32:54;0.00;0.00;0.62;0.00;0.00;0.62;4.93;4.10;;;26.80;22.70;;;;;;2256486;61;20441;-66
2023/05/06 08:35:39;0.00;0.00;0.62;0.00;0.00;0.62;4.47;4.07;;;26.80;22.70;;;;;;2256380;61;20357;-64
2023/05/06 08:38:25;0.00;0.00;0.62;0.00;0.00;0.62;4.43;4.03;;;26.80;22.70;;;;;;2255456;61;20365;-65
2023/05/06 08:41:12;0.00;0.00;0.62;0.00;0.00;0.62;4.77;4.37;;;26.90;22.70;;;;;;2256676;61;20563;-67
2023/05/06 08:43:59;0.00;0.00;0.62;0.00;0.00;0.62;4.00;3.60;;;26.80;22.70;;;;;;2253275;61;20408;-66
2023/05/06 08:46:45;0.00;0.00;0.62;0.00;0.00;0.62;4.00;3.60;;;26.80;22.70;;;;;;2255733;61;20365;-67
2023/05/06 08:49:30;0.00;0.00;0.62;0.00;0.00;0.62;4.43;3.80;;;26.90;22.70;;;;;;2256108;61;20740;-66
2023/05/06 08:52:16;0.00;0.00;0.62;0.00;0.00;0.62;4.13;3.60;;;26.90;22.70;;;;;;2255452;61;20397;-66
2023/05/06 08:55:04;0.00;0.00;0.62;0.00;0.00;0.62;4.03;3.63;;;26.90;22.70;;;;;;2256545;61;20409;-66
2023/05/06 08:57:51;0.00;0.00;0.62;0.00;0.00;0.62;3.97;3.40;;;26.80;22.70;;;;;;2258913;61;20450;-66
2023/05/06 09:00:36;0.00;0.00;0.62;0.00;0.00;0.62;4.07;3.50;;;26.90;22.70;;;;;;2255603;61;20406;-66
2023/05/06 09:03:21;0.00;0.00;0.62;0.00;0.00;0.62;4.37;3.60;;;26.90;22.70;;;;;;2256544;61;20362;-66
2023/05/06 09:06:06;0.00;0.00;0.62;0.00;0.00;0.62;4.77;3.97;;;26.90;22.70;;;;;;2256460;61;20848;-66
2023/05/06 09:08:50;0.00;0.00;0.62;0.00;0.00;0.62;4.70;4.20;;;26.90;22.70;;;;;;2255814;61;20393;-65
2023/05/06 09:11:37;0.00;0.00;0.62;0.00;0.00;0.62;3.93;3.43;;;26.90;22.70;;;;;;2256579;61;20448;-65
2023/05/06 09:14:23;0.00;0.00;0.62;0.00;0.00;0.62;4.50;3.80;;;26.90;22.80;;;;;;2255668;61;20596;-64
2023/05/06 09:17:22;0.00;0.00;0.62;0.00;0.00;0.62;4.30;3.90;;;26.90;22.80;;;;;;2256874;61;20409;-64
2023/05/06 09:20:11;0.00;0.00;0.62;0.00;0.00;0.62;4.00;3.60;;;26.90;22.80;;;;;;2255865;61;20490;-65
2023/05/06 09:22:57;0.00;0.00;0.62;0.00;0.00;0.62;3.27;2.83;;;26.90;22.90;;;;;;2255383;61;20450;-64
2023/05/06 09:25:42;0.00;0.00;0.62;0.00;0.00;0.62;4.27;3.53;;;26.90;22.90;;;;;;2255731;61;20373;-64
2023/05/06 09:28:32;0.00;0.00;0.62;0.00;0.00;0.62;3.60;3.00;;;26.90;22.90;;;;;;2256480;61;20362;-63
2023/05/06 09:31:17;0.00;0.00;0.62;0.00;0.00;0.62;4.93;3.13;;;26.90;23.00;;;;;;2255993;61;20381;-67
2023/05/06 09:34:01;0.00;0.00;0.62;0.00;0.00;0.62;4.33;3.60;;;26.90;22.90;;;;;;2256165;61;20405;-66
2023/05/06 09:36:46;0.00;0.00;0.62;0.00;0.00;0.62;4.40;4.00;;;26.90;22.90;;;;;;2255478;61;20366;-64
2023/05/06 09:39:30;0.00;0.00;0.62;0.00;0.00;0.62;5.10;3.97;;;26.90;22.90;;;;;;2256277;61;20390;-66
2023/05/06 09:42:15;0.00;0.00;0.62;0.00;0.00;0.62;3.50;3.20;;;26.90;23.00;;;;;;2255934;61;20366;-64
2023/05/06 09:45:02;0.00;0.00;0.62;0.00;0.00;0.62;3.70;3.40;;;26.90;22.90;;;;;;2255241;61;20412;-65
2023/05/06 09:47:48;0.00;0.00;0.62;0.00;0.00;0.62;3.37;3.00;;;26.90;23.00;;;;;;2256167;61;20366;-65
2023/05/06 09:50:33;0.00;0.00;0.62;0.00;0.00;0.62;3.53;2.97;;;26.90;23.00;;;;;;2255859;61;20477;-65
2023/05/06 09:53:19;0.00;0.00;0.62;0.00;0.00;0.62;3.33;3.03;;;27.00;23.00;;;;;;2255740;61;20401;-66
2023/05/06 09:56:05;0.00;0.00;0.62;0.00;0.00;0.62;4.10;3.43;;;27.00;23.10;;;;;;2256113;61;20366;-65
2023/05/06 09:58:51;0.00;0.00;0.62;0.00;0.00;0.62;3.50;3.20;;;27.00;23.10;;;;;;2254878;61;20890;-63
2023/05/06 10:01:38;0.00;0.00;0.62;0.00;0.00;0.62;4.20;3.80;;;27.00;23.10;;;;;;2255773;61;20385;-65
2023/05/06 10:04:25;0.00;0.00;0.62;0.00;0.00;0.62;4.10;3.33;;;27.00;23.10;;;;;;2256192;61;20374;-66
2023/05/06 10:07:14;0.00;0.00;0.62;0.00;0.00;0.62;4.00;3.20;;;26.90;23.00;;;;;;2255278;61;20377;-65
2023/05/06 10:10:00;0.00;0.00;0.62;0.00;0.00;0.62;3.40;3.10;;;27.00;23.10;;;;;;2255996;61;20386;-66
2023/05/06 10:12:46;0.00;0.00;0.62;0.00;0.00;0.62;4.13;3.57;;;27.00;23.10;;;;;;2256006;61;20964;-66
2023/05/06 10:15:31;0.00;0.00;0.62;0.00;0.00;0.62;3.77;3.37;;;27.00;23.10;;;;;;2255184;61;20361;-67
2023/05/06 10:18:20;0.00;0.00;0.62;0.00;0.00;0.62;7.33;3.40;;;27.00;23.10;;;;;;2256237;61;20432;-65
2023/05/06 10:21:12;0.00;0.00;0.62;0.00;0.00;0.62;4.60;4.00;;;27.00;23.10;;;;;;2254715;61;20507;-65
2023/05/06 10:24:05;0.00;0.00;0.62;0.00;0.00;0.62;4.83;3.73;;;27.00;23.20;;;;;;2255828;61;20350;-66
2023/05/06 10:26:53;0.00;0.00;0.62;0.00;0.00;0.62;4.20;3.57;;;27.00;23.20;;;;;;2691906;45;20374;-64
2023/05/06 10:29:40;0.00;0.00;0.62;0.00;0.00;0.62;3.73;2.93;;;27.00;23.20;;;;;;2250954;61;20422;-66
2023/05/06 10:32:28;0.00;0.00;0.62;0.00;0.00;0.62;4.33;3.27;;;27.00;23.20;;;;;;2251653;61;20394;-64
2023/05/06 10:35:26;0.00;0.00;0.62;0.00;0.00;0.62;4.27;3.53;;;27.00;23.20;;;;;;2250995;61;20437;-65
2023/05/06 10:38:25;0.00;0.00;0.62;0.00;0.00;0.62;3.57;3.17;;;27.00;23.20;;;;;;2250846;61;20375;-64
2023/05/06 10:41:11;0.00;0.00;0.62;0.00;0.00;0.62;3.97;3.53;;;27.00;23.20;;;;;;2251591;61;20429;-65
2023/05/06 10:43:56;0.00;0.00;0.62;0.00;0.00;0.62;3.83;3.50;;;27.00;23.20;;;;;;2250895;61;20382;-65
2023/05/06 10:46:59;0.00;0.00;0.62;0.00;0.00;0.62;3.20;2.90;;;27.00;23.30;;;;;;2251914;61;20779;-67
2023/05/06 10:50:20;0.00;0.00;0.62;0.00;0.00;0.62;3.70;3.37;;;27.00;23.30;;;;;;2251860;61;20481;-64
2023/05/06 10:53:05;0.00;0.00;0.62;0.00;0.00;0.62;3.70;3.40;;;27.00;23.30;;;;;;2252105;61;20399;-64
2023/05/06 10:56:07;0.00;0.00;0.62;0.00;0.00;0.62;3.63;3.33;;;27.00;23.30;;;;;;2252234;61;20826;-64
2023/05/06 10:58:54;0.00;0.00;0.62;0.00;0.00;0.62;3.60;3.30;;;27.00;23.30;;;;;;2250157;61;20386;-64